Time;durP1;ratioP1;P1;durP2;ratioP2;P2;SDS_P1;SDS_P2;PMS_P1;PMS_P2;Temp;Humidity;BMP_temperature;BMP_pressure;BME280_temperature;BME280_humidity;BME280_pressure;Samples;Min_cycle;Max_cycle;Signal;HPM_P1;HPM_P2
2024/03/12 00:01:12;;;;;;;26.60;12.20;;;9.80;99.90;;;;;;4893346;29;20470;-81
2024/03/12 00:03:42;;;;;;;38.20;18.25;;;9.80;99.90;;;;;;4891980;29;20052;-81
2024/03/12 00:06:12;;;;;;;29.05;13.75;;;9.80;99.90;;;;;;4888446;29;20064;-81
2024/03/12 00:08:42;;;;;;;25.77;12.32;;;9.70;99.90;;;;;;4905120;29;20055;-81
2024/03/12 00:11:13;;;;;;;25.88;11.65;;;9.70;99.90;;;;;;4891543;29;20032;-81
2024/03/12 00:13:42;;;;;;;20.67;10.15;;;9.70;99.90;;;;;;4888489;29;20041;-81
2024/03/12 00:16:11;;;;;;;19.83;9.38;;;9.60;99.90;;;;;;4901851;29;20053;-83
2024/03/12 00:18:40;;;;;;;24.50;9.75;;;9.60;99.90;;;;;;4891258;29;20045;-82
2024/03/12 00:21:08;;;;;;;16.20;7.40;;;9.50;99.90;;;;;;4895174;29;20104;-83
2024/03/12 00:23:37;;;;;;;20.00;7.88;;;9.50;99.90;;;;;;4896153;29;20068;-80
2024/03/12 00:26:05;;;;;;;14.85;6.43;;;9.50;99.90;;;;;;4892204;29;20370;-84
2024/03/12 00:28:35;;;;;;;14.30;6.80;;;9.40;99.90;;;;;;4888108;29;20053;-88
2024/03/12 00:31:05;;;;;;;13.25;5.55;;;9.40;99.90;;;;;;4888815;29;20123;-81
2024/03/12 00:33:39;;;;;;;11.90;5.75;;;9.40;99.90;;;;;;4892548;29;20076;-87
2024/03/12 00:36:12;;;;;;;11.70;5.55;;;9.40;99.90;;;;;;4907479;29;20048;-80
2024/03/12 00:38:41;;;;;;;8.98;4.55;;;9.30;99.90;;;;;;4892525;29;20059;-86
2024/03/12 00:41:10;;;;;;;11.48;4.68;;;9.30;99.90;;;;;;4890898;29;20230;-85
2024/03/12 00:43:41;;;;;;;11.50;4.45;;;9.20;99.90;;;;;;4892845;29;20048;-79
2024/03/12 00:46:11;;;;;;;11.23;4.68;;;9.20;99.90;;;;;;4900727;29;20131;-83
2024/03/12 00:48:39;;;;;;;10.95;4.55;;;9.20;99.90;;;;;;4903370;29;20079;-80
2024/03/12 00:51:08;;;;;;;9.38;4.60;;;9.20;99.90;;;;;;4885613;29;20052;-79
2024/03/12 00:53:37;;;;;;;11.43;4.45;;;9.10;99.90;;;;;;4887011;29;20445;-85
2024/03/12 00:56:06;;;;;;;8.27;3.83;;;9.10;99.90;;;;;;4887667;29;20512;-80
2024/03/12 00:58:37;;;;;;;8.73;4.00;;;9.00;99.90;;;;;;4893359;29;20044;-84
2024/03/12 01:01:14;;;;;;;12.95;4.43;;;9.00;99.90;;;;;;4888877;29;20052;-79
2024/03/12 01:03:46;;;;;;;8.45;4.13;;;9.10;99.90;;;;;;4885053;29;20275;-84
2024/03/12 01:06:15;;;;;;;9.18;3.70;;;9.00;99.90;;;;;;4903017;29;20091;-79
2024/03/12 01:08:43;;;;;;;9.25;3.53;;;9.00;99.90;;;;;;4892358;29;20064;-80
2024/03/12 01:11:12;;;;;;;8.77;3.35;;;9.00;99.90;;;;;;4885010;29;20055;-79
2024/03/12 01:13:41;;;;;;;7.95;3.50;;;9.10;99.90;;;;;;4898835;29;20052;-79
2024/03/12 01:16:11;;;;;;;6.45;3.20;;;9.00;99.90;;;;;;4891845;29;20060;-80
2024/03/12 01:18:39;;;;;;;7.90;3.63;;;9.00;99.90;;;;;;4889922;29;20045;-78
2024/03/12 01:21:08;;;;;;;7.10;2.83;;;9.10;99.90;;;;;;4889332;29;20501;-79
2024/03/12 01:23:36;;;;;;;7.18;2.85;;;9.10;99.90;;;;;;4891384;29;20049;-81
2024/03/12 01:26:07;;;;;;;4.55;2.50;;;9.10;99.90;;;;;;4902683;29;20096;-84
2024/03/12 01:28:36;;;;;;;8.45;2.58;;;9.00;99.90;;;;;;4889756;29;20044;-81
2024/03/12 01:31:05;;;;;;;5.55;2.40;;;9.00;99.90;;;;;;4906305;29;20408;-78
2024/03/12 01:33:35;;;;;;;5.25;2.30;;;8.90;99.90;;;;;;4891093;29;20074;-79
2024/03/12 01:36:18;;;;;;;4.07;1.85;;;8.90;99.90;;;;;;4889933;29;20563;-84
2024/03/12 01:38:48;;;;;;;3.83;1.30;;;8.80;99.90;;;;;;4892741;29;20516;-81
2024/03/12 01:41:17;;;;;;;3.05;0.90;;;8.80;99.90;;;;;;4902149;29;20056;-80
2024/03/12 01:43:59;;;;;;;3.78;1.02;;;8.80;99.90;;;;;;4893401;29;20059;-78
2024/03/12 01:46:28;;;;;;;3.03;1.10;;;8.80;99.90;;;;;;4884119;29;20053;-80
2024/03/12 01:48:59;;;;;;;2.13;0.85;;;8.80;99.90;;;;;;4906532;29;20100;-80
2024/03/12 01:51:33;;;;;;;2.28;1.00;;;8.80;99.90;;;;;;4887432;29;20060;-85
2024/03/12 01:54:03;;;;;;;2.25;0.75;;;8.70;99.90;;;;;;4902833;29;20462;-83
2024/03/12 01:56:32;;;;;;;2.58;0.90;;;8.60;99.90;;;;;;4890361;29;20218;-80
2024/03/12 01:59:01;;;;;;;2.45;0.60;;;8.60;99.90;;;;;;4888878;29;20045;-79
2024/03/12 02:01:29;;;;;;;2.65;0.90;;;8.50;99.90;;;;;;4893605;29;20108;-79
2024/03/12 02:03:59;;;;;;;1.70;0.60;;;8.50;99.90;;;;;;4890775;29;20051;-78
2024/03/12 02:06:28;;;;;;;1.48;0.40;;;8.50;99.90;;;;;;4902251;29;20063;-84
2024/03/12 02:08:59;;;;;;;1.75;0.40;;;8.50;99.90;;;;;;4909044;29;20088;-79
2024/03/12 02:11:27;;;;;;;1.42;0.40;;;8.40;99.90;;;;;;4898546;29;20061;-80
2024/03/12 02:13:56;;;;;;;1.60;0.52;;;8.40;99.90;;;;;;4893728;29;20127;-78
2024/03/12 02:16:24;;;;;;;1.35;0.35;;;8.40;99.90;;;;;;4904917;29;20167;-79
2024/03/12 02:18:52;;;;;;;2.05;0.30;;;8.40;99.90;;;;;;4894185;29;20160;-80
2024/03/12 02:21:24;;;;;;;1.55;0.47;;;8.40;99.90;;;;;;4892067;29;20048;-78
2024/03/12 02:23:54;;;;;;;1.20;0.32;;;8.30;99.90;;;;;;4890452;29;20096;-79
2024/03/12 02:26:24;;;;;;;1.60;0.40;;;8.30;99.90;;;;;;4897154;29;20045;-78
2024/03/12 02:28:52;;;;;;;1.25;0.52;;;8.30;99.90;;;;;;4892278;29;20144;-79
2024/03/12 02:31:21;;;;;;;0.68;0.20;;;8.30;99.90;;;;;;4895310;29;20045;-79
2024/03/12 02:33:49;;;;;;;1.45;0.40;;;8.40;99.90;;;;;;4895709;29;20423;-82
2024/03/12 02:36:20;;;;;;;1.63;0.45;;;8.40;99.90;;;;;;4892347;29;20056;-80
2024/03/12 02:38:49;;;;;;;1.60;0.40;;;8.40;99.90;;;;;;4890814;29;20092;-79
2024/03/12 02:41:21;;;;;;;1.98;0.47;;;8.40;99.90;;;;;;4889999;29;20071;-79
2024/03/12 02:43:51;;;;;;;1.67;0.65;;;8.40;99.90;;;;;;4886774;29;20045;-79
2024/03/12 02:46:22;;;;;;;2.17;0.73;;;8.40;99.90;;;;;;4892419;29;20040;-82
2024/03/12 02:48:51;;;;;;;1.88;0.80;;;8.40;99.90;;;;;;4905564;29;20556;-80
2024/03/12 02:51:20;;;;;;;1.50;0.40;;;8.40;99.90;;;;;;4886807;29;20048;-80
2024/03/12 02:53:48;;;;;;;2.33;0.60;;;8.40;99.90;;;;;;4889525;29;20060;-79
2024/03/12 02:56:18;;;;;;;2.58;0.40;;;8.40;99.90;;;;;;4891245;29;20055;-80
2024/03/12 02:58:48;;;;;;;1.90;0.47;;;8.50;99.90;;;;;;4891083;29;20052;-78
2024/03/12 03:01:16;;;;;;;2.03;0.38;;;8.40;99.90;;;;;;4894218;29;20048;-79
2024/03/12 03:03:45;;;;;;;1.05;0.40;;;8.50;99.90;;;;;;4904406;29;20526;-79
2024/03/12 03:06:13;;;;;;;1.33;0.50;;;8.40;99.90;;;;;;4889993;29;20048;-79
2024/03/12 03:08:42;;;;;;;1.27;0.40;;;8.30;99.90;;;;;;4894040;29;20071;-78
2024/03/12 03:11:10;;;;;;;1.02;0.40;;;8.40;99.90;;;;;;4906457;29;20049;-79
2024/03/12 03:13:40;;;;;;;0.63;0.32;;;8.40;99.90;;;;;;4889136;29;20048;-78
2024/03/12 03:16:09;;;;;;;1.63;0.40;;;8.30;99.90;;;;;;4893181;29;20056;-79
2024/03/12 03:18:37;;;;;;;1.08;0.30;;;8.40;99.90;;;;;;4903762;29;20398;-79
2024/03/12 03:21:07;;;;;;;3.58;0.40;;;8.40;99.90;;;;;;4890780;29;20113;-77
2024/03/12 03:23:40;;;;;;;1.55;0.60;;;8.40;99.90;;;;;;4891271;29;20535;-79
2024/03/12 03:26:08;;;;;;;1.75;0.30;;;8.40;99.90;;;;;;4908361;29;20076;-78
2024/03/12 03:28:37;;;;;;;2.20;1.13;;;8.40;99.90;;;;;;4903539;29;20053;-79
2024/03/12 03:31:10;;;;;;;1.95;0.47;;;8.40;99.90;;;;;;4892964;29;20054;-78
2024/03/12 03:33:39;;;;;;;1.45;0.40;;;8.40;99.90;;;;;;4892996;29;20190;-79
2024/03/12 03:36:07;;;;;;;1.05;0.40;;;8.40;99.90;;;;;;4889277;29;20045;-78
2024/03/12 03:38:40;;;;;;;1.23;0.60;;;8.40;99.90;;;;;;4905960;29;20068;-78
2024/03/12 03:41:09;;;;;;;1.60;0.30;;;8.40;99.90;;;;;;4908419;29;20048;-79
2024/03/12 03:43:39;;;;;;;3.45;1.05;;;8.40;99.90;;;;;;4906066;29;20049;-78
2024/03/12 03:46:09;;;;;;;1.88;0.68;;;8.40;99.90;;;;;;4889207;29;20076;-80
2024/03/12 03:48:37;;;;;;;2.78;0.50;;;8.40;99.90;;;;;;4906713;29;20441;-77
2024/03/12 03:51:06;;;;;;;1.83;0.50;;;8.30;99.90;;;;;;4890453;29;20481;-79
2024/03/12 03:53:34;;;;;;;2.22;1.15;;;8.30;99.90;;;;;;4899869;29;20060;-77
2024/03/12 03:56:03;;;;;;;2.13;0.47;;;8.30;99.90;;;;;;4892611;29;20044;-78
2024/03/12 03:58:32;;;;;;;2.47;0.73;;;8.40;99.90;;;;;;4891482;29;20124;-80
2024/03/12 04:01:00;;;;;;;2.88;0.70;;;8.40;99.90;;;;;;4887472;29;20070;-78
2024/03/12 04:03:30;;;;;;;1.73;0.52;;;8.30;99.90;;;;;;4904698;29;20057;-78
2024/03/12 04:05:59;;;;;;;2.15;0.70;;;8.40;99.90;;;;;;4903297;29;20049;-79
2024/03/12 04:08:27;;;;;;;1.35;0.50;;;8.40;99.90;;;;;;4886321;29;20108;-80
2024/03/12 04:10:55;;;;;;;1.35;0.45;;;8.40;99.90;;;;;;4888320;29;20079;-78
2024/03/12 04:13:24;;;;;;;1.83;0.45;;;8.30;99.90;;;;;;4894732;29;20063;-80
2024/03/12 04:15:52;;;;;;;1.50;0.43;;;8.30;99.90;;;;;;4899856;29;20513;-78
2024/03/12 04:18:21;;;;;;;3.35;0.75;;;8.30;99.90;;;;;;4897393;29;20076;-79
2024/03/12 04:20:53;;;;;;;1.70;0.50;;;8.20;99.90;;;;;;4906266;29;20183;-80
2024/03/12 04:23:21;;;;;;;3.25;0.90;;;8.20;99.90;;;;;;4884110;29;20045;-79
2024/03/12 04:25:50;;;;;;;2.13;0.77;;;8.20;99.90;;;;;;4891103;29;20070;-79
2024/03/12 04:28:19;;;;;;;2.72;0.45;;;8.10;99.90;;;;;;4906232;29;20143;-79
2024/03/12 04:30:49;;;;;;;2.05;0.65;;;8.10;99.90;;;;;;4903031;29;20421;-81
2024/03/12 04:33:17;;;;;;;2.63;0.65;;;8.10;99.90;;;;;;4885594;29;20056;-79
2024/03/12 04:35:46;;;;;;;3.22;0.60;;;8.00;99.90;;;;;;4907115;29;20088;-82
2024/03/12 04:38:18;;;;;;;2.55;0.80;;;8.00;99.90;;;;;;4906561;29;20082;-79
2024/03/12 04:40:47;;;;;;;3.00;0.90;;;7.90;99.90;;;;;;4904238;29;20109;-77
2024/03/12 04:43:18;;;;;;;2.15;0.65;;;7.90;99.90;;;;;;4889114;29;20081;-80
2024/03/12 04:45:46;;;;;;;2.22;0.60;;;7.90;99.90;;;;;;4890957;29;20112;-81
2024/03/12 04:48:15;;;;;;;2.90;1.00;;;7.80;99.90;;;;;;4894827;29;20093;-81
2024/03/12 04:50:43;;;;;;;2.53;1.10;;;7.90;99.90;;;;;;4905080;29;20143;-82
2024/03/12 04:53:12;;;;;;;2.67;1.45;;;7.80;99.90;;;;;;4891446;29;20051;-79
2024/03/12 04:55:42;;;;;;;3.17;0.82;;;7.90;99.90;;;;;;4889378;29;20082;-79
2024/03/12 04:58:10;;;;;;;2.97;0.90;;;7.90;99.90;;;;;;4899704;29;20049;-79
2024/03/12 05:00:38;;;;;;;2.88;1.60;;;7.90;99.90;;;;;;4902802;29;20040;-78
2024/03/12 05:03:07;;;;;;;4.25;1.40;;;7.90;99.90;;;;;;4890421;29;20524;-79
2024/03/12 05:05:35;;;;;;;2.85;1.10;;;7.80;99.90;;;;;;4902387;29;20060;-79
2024/03/12 05:08:04;;;;;;;3.13;1.13;;;7.80;99.90;;;;;;4895326;29;20053;-80
2024/03/12 05:10:33;;;;;;;3.38;1.27;;;7.80;99.90;;;;;;4907288;29;20051;-78
2024/03/12 05:13:03;;;;;;;12.15;4.35;;;7.90;99.90;;;;;;4889385;29;20049;-79
2024/03/12 05:15:32;;;;;;;25.92;9.80;;;7.90;99.90;;;;;;4888225;29;20511;-79
2024/03/12 05:18:00;;;;;;;14.40;6.57;;;7.90;99.90;;;;;;4889372;29;20127;-79
2024/03/12 05:20:29;;;;;;;10.25;4.25;;;7.90;99.90;;;;;;4884493;29;20171;-80
2024/03/12 05:22:58;;;;;;;6.55;2.83;;;7.90;99.90;;;;;;4892309;29;20045;-79
2024/03/12 05:25:38;;;;;;;5.65;2.40;;;7.90;99.90;;;;;;4907149;29;20044;-80
2024/03/12 05:28:10;;;;;;;8.18;3.45;;;7.90;99.90;;;;;;4886730;29;20121;-79
2024/03/12 05:30:40;;;;;;;9.73;4.35;;;7.90;99.90;;;;;;4894508;29;20041;-80
2024/03/12 05:33:14;;;;;;;7.13;3.08;;;7.90;99.90;;;;;;4888758;29;20048;-79
2024/03/12 05:35:49;;;;;;;5.72;2.25;;;8.00;99.90;;;;;;4893777;29;20523;-80
2024/03/12 05:38:32;;;;;;;14.25;6.50;;;8.00;99.90;;;;;;4903031;29;20501;-82
2024/03/12 05:41:25;;;;;;;30.80;14.40;;;8.10;99.90;;;;;;4884749;29;20054;-80
2024/03/12 05:49:26;;;;;;;7.50;3.75;;;8.10;99.90;;;;;;4888493;29;20068;-81
2024/03/12 05:51:55;;;;;;;7.40;2.63;;;8.20;99.90;;;;;;4887794;29;20218;-80
2024/03/12 05:54:24;;;;;;;6.63;3.38;;;8.20;99.90;;;;;;4890813;29;20140;-80
2024/03/12 05:56:52;;;;;;;6.28;2.50;;;8.20;99.90;;;;;;4892914;29;20107;-79
2024/03/12 05:59:22;;;;;;;3.97;2.15;;;8.20;99.90;;;;;;4886152;29;20052;-82
2024/03/12 06:01:51;;;;;;;6.63;2.40;;;8.30;99.90;;;;;;4887065;29;20049;-80
2024/03/12 06:04:19;;;;;;;4.80;2.00;;;8.40;99.90;;;;;;4890226;29;20056;-81
2024/03/12 06:06:48;;;;;;;4.65;1.80;;;8.30;99.90;;;;;;4888208;29;20036;-79
2024/03/12 06:09:22;;;;;;;4.45;1.50;;;8.40;99.90;;;;;;4882183;29;20073;-79
2024/03/12 06:11:51;;;;;;;3.55;1.65;;;8.40;99.90;;;;;;4903514;29;20390;-82
2024/03/12 06:14:25;;;;;;;3.60;1.40;;;8.40;99.90;;;;;;4889782;29;20040;-83
2024/03/12 06:16:54;;;;;;;4.28;1.23;;;8.40;99.90;;;;;;4891730;29;20053;-81
2024/03/12 06:19:26;;;;;;;3.13;1.08;;;8.50;99.90;;;;;;4888776;29;20525;-82
2024/03/12 06:21:56;;;;;;;3.70;1.10;;;8.50;99.90;;;;;;4900238;29;20112;-85
2024/03/12 06:24:27;;;;;;;3.05;1.20;;;8.50;99.90;;;;;;4904823;29;20049;-83
2024/03/12 06:26:57;;;;;;;3.70;1.40;;;8.60;99.90;;;;;;4891534;29;20045;-80
2024/03/12 06:29:27;;;;;;;3.80;1.25;;;8.60;99.90;;;;;;4888494;29;20055;-81
2024/03/12 06:31:56;;;;;;;4.35;1.63;;;8.70;99.90;;;;;;4902881;29;20161;-86
2024/03/12 06:34:27;;;;;;;4.35;1.50;;;8.70;99.90;;;;;;4891556;29;20112;-84
2024/03/12 06:36:57;;;;;;;6.07;1.98;;;8.90;99.90;;;;;;4888729;29;20052;-83
2024/03/12 06:39:31;;;;;;;5.15;1.80;;;8.90;99.90;;;;;;4891584;29;20056;-86
2024/03/12 06:42:01;;;;;;;3.17;1.65;;;9.10;99.90;;;;;;4885767;29;20056;-80
2024/03/12 06:44:40;;;;;;;6.13;1.60;;;9.30;99.90;;;;;;4900179;29;20458;-80
2024/03/12 06:47:09;;;;;;;4.93;1.38;;;9.50;99.90;;;;;;4890530;29;20068;-87
2024/03/12 06:49:38;;;;;;;2.38;0.85;;;9.60;99.90;;;;;;4907230;29;20053;-79
2024/03/12 06:52:07;;;;;;;4.28;1.60;;;9.60;99.90;;;;;;4888932;29;20044;-85
2024/03/12 06:54:36;;;;;;;3.65;1.40;;;9.40;99.90;;;;;;4904967;29;20557;-84
2024/03/12 06:57:07;;;;;;;2.67;1.05;;;9.30;99.90;;;;;;4897770;29;20480;-82
2024/03/12 06:59:37;;;;;;;3.42;1.00;;;9.20;99.90;;;;;;4891257;29;20068;-87
2024/03/12 07:02:06;;;;;;;2.17;1.00;;;9.00;99.90;;;;;;4889562;29;20596;-89
2024/03/12 07:04:43;;;;;;;3.63;1.30;;;8.90;99.90;;;;;;4889810;29;20053;-83
2024/03/12 07:07:13;;;;;;;3.47;1.23;;;8.90;99.90;;;;;;4901046;29;20147;-81
2024/03/12 07:09:42;;;;;;;3.90;1.38;;;9.00;99.90;;;;;;4894038;29;20053;-79
2024/03/12 07:12:12;;;;;;;3.25;1.15;;;9.10;99.90;;;;;;4890350;29;20045;-86
2024/03/12 07:14:45;;;;;;;2.88;1.42;;;9.20;99.90;;;;;;4906456;29;20568;-86
2024/03/12 07:17:14;;;;;;;4.10;1.20;;;9.20;99.90;;;;;;4891876;29;20052;-81
2024/03/12 07:19:43;;;;;;;3.45;0.98;;;9.30;99.90;;;;;;4910115;29;20615;-86
2024/03/12 07:22:12;;;;;;;4.55;1.25;;;9.40;99.90;;;;;;4886210;29;20044;-84
2024/03/12 07:24:40;;;;;;;2.28;0.88;;;9.40;99.90;;;;;;4905852;29;20056;-85
2024/03/12 07:27:09;;;;;;;3.50;1.15;;;9.70;99.90;;;;;;4905517;29;20052;-89
2024/03/12 07:29:37;;;;;;;1.98;0.80;;;10.10;99.90;;;;;;4889666;29;20064;-81
2024/03/12 07:32:08;;;;;;;2.45;1.35;;;10.20;99.90;;;;;;4896927;29;20136;-83
2024/03/12 07:34:39;;;;;;;3.10;0.98;;;10.10;99.90;;;;;;4890858;29;20081;-81
2024/03/12 07:37:07;;;;;;;2.60;0.70;;;10.30;99.90;;;;;;4890571;29;20913;-89
2024/03/12 07:39:36;;;;;;;3.15;1.08;;;10.40;99.90;;;;;;4902965;29;20052;-88
2024/03/12 07:42:09;;;;;;;3.38;1.35;;;10.40;99.90;;;;;;4897656;29;20442;-82
2024/03/12 07:44:42;;;;;;;3.47;1.08;;;10.10;99.90;;;;;;4892778;29;20101;-86
2024/03/12 07:47:12;;;;;;;3.78;1.30;;;9.90;99.90;;;;;;4890907;29;20081;-82
2024/03/12 07:49:41;;;;;;;3.35;1.73;;;9.90;99.90;;;;;;4890232;29;20079;-80
2024/03/12 07:52:11;;;;;;;4.47;2.58;;;9.90;99.90;;;;;;4900887;29;20405;-84
2024/03/12 07:54:40;;;;;;;3.38;1.30;;;10.00;99.90;;;;;;4901371;29;20156;-84
2024/03/12 07:57:09;;;;;;;3.92;1.80;;;10.00;99.90;;;;;;4890336;29;20128;-80
2024/03/12 07:59:37;;;;;;;2.92;1.33;;;10.00;99.90;;;;;;4890180;29;20044;-83
2024/03/12 08:02:11;;;;;;;4.90;1.70;;;10.00;99.90;;;;;;4890473;29;20044;-84
2024/03/12 08:04:42;;;;;;;4.22;1.80;;;10.00;99.90;;;;;;4905472;29;20702;-83
2024/03/12 08:07:11;;;;;;;4.93;2.25;;;10.00;99.90;;;;;;4891739;29;20047;-85
2024/03/12 08:09:42;;;;;;;4.35;1.77;;;10.10;99.90;;;;;;4900098;29;20429;-82
2024/03/12 08:12:13;;;;;;;5.22;1.63;;;10.00;99.90;;;;;;4889316;29;20048;-84
2024/03/12 08:14:45;;;;;;;3.47;1.48;;;9.90;99.90;;;;;;4906585;29;20060;-84
2024/03/12 08:17:14;;;;;;;3.83;1.23;;;9.90;99.90;;;;;;4909179;29;20061;-83
2024/03/12 08:19:47;;;;;;;2.80;1.00;;;10.00;99.90;;;;;;4907107;29;20160;-85
2024/03/12 08:22:18;;;;;;;3.13;1.13;;;10.10;99.90;;;;;;4904140;29;20051;-83
2024/03/12 08:24:49;;;;;;;2.83;1.05;;;10.20;99.90;;;;;;4907785;29;20045;-80
2024/03/12 08:27:18;;;;;;;2.67;0.82;;;10.20;99.90;;;;;;4905290;29;20057;-81
2024/03/12 08:29:47;;;;;;;2.17;0.95;;;10.20;99.90;;;;;;4892906;29;20049;-82
2024/03/12 08:32:15;;;;;;;3.17;0.98;;;10.20;99.90;;;;;;4888071;29;20052;-83
2024/03/12 08:34:45;;;;;;;2.65;0.93;;;10.30;99.90;;;;;;4890872;29;20056;-83
2024/03/12 08:37:13;;;;;;;2.47;0.98;;;10.30;99.90;;;;;;4906694;29;20470;-82
2024/03/12 08:39:42;;;;;;;3.03;1.38;;;10.40;99.90;;;;;;4900670;29;20053;-84
2024/03/12 08:42:11;;;;;;;2.80;1.35;;;10.30;99.90;;;;;;4884138;29;20536;-84
2024/03/12 08:44:39;;;;;;;3.05;1.10;;;10.30;99.90;;;;;;4888819;29;20433;-84
2024/03/12 08:47:08;;;;;;;3.38;1.10;;;10.30;99.90;;;;;;4899990;29;20084;-84
2024/03/12 08:49:37;;;;;;;2.70;1.10;;;10.50;99.90;;;;;;4893919;29;20056;-83
2024/03/12 08:52:07;;;;;;;2.90;1.25;;;10.50;99.90;;;;;;4898921;29;20055;-80
2024/03/12 08:54:35;;;;;;;4.65;1.25;;;10.40;99.90;;;;;;4889676;29;20135;-81
2024/03/12 08:57:04;;;;;;;4.95;1.15;;;10.40;99.90;;;;;;4894834;29;20526;-82
2024/03/12 08:59:33;;;;;;;2.20;1.13;;;10.30;99.90;;;;;;4889428;29;20123;-83
2024/03/12 09:02:02;;;;;;;4.57;1.20;;;10.30;99.90;;;;;;4888180;29;20135;-82
2024/03/12 09:04:32;;;;;;;3.03;1.23;;;10.30;99.90;;;;;;4894296;29;20533;-82
2024/03/12 09:07:01;;;;;;;3.00;1.33;;;10.40;99.90;;;;;;4888546;29;20390;-82
2024/03/12 09:09:31;;;;;;;2.00;0.80;;;10.40;99.90;;;;;;4890559;29;20055;-82
2024/03/12 09:12:00;;;;;;;2.10;0.93;;;10.50;99.90;;;;;;4888021;29;20043;-79
2024/03/12 09:14:28;;;;;;;2.53;0.85;;;10.50;99.90;;;;;;4891670;29;20060;-79
2024/03/12 09:16:58;;;;;;;2.85;1.00;;;10.50;99.90;;;;;;4899303;29;20052;-81
2024/03/12 09:19:27;;;;;;;3.03;0.93;;;10.40;99.90;;;;;;4888078;29;20052;-82
2024/03/12 09:21:58;;;;;;;1.83;0.75;;;10.50;99.90;;;;;;4904395;29;20051;-83
2024/03/12 09:24:27;;;;;;;2.20;1.10;;;10.50;99.90;;;;;;4906657;29;20128;-81
2024/03/12 09:26:57;;;;;;;3.38;1.48;;;10.50;99.90;;;;;;4887614;29;20513;-85
2024/03/12 09:29:25;;;;;;;3.90;1.80;;;10.50;99.90;;;;;;4901710;29;20055;-82
2024/03/12 09:31:54;;;;;;;2.88;0.90;;;10.50;99.90;;;;;;4890307;29;20048;-83
2024/03/12 09:34:24;;;;;;;4.68;1.25;;;10.50;99.90;;;;;;4906357;29;20127;-84
2024/03/12 09:36:52;;;;;;;2.50;0.95;;;10.40;99.90;;;;;;4891319;29;20127;-84
2024/03/12 09:39:23;;;;;;;1.70;1.13;;;10.60;99.90;;;;;;4886739;29;20425;-87
2024/03/12 09:41:55;;;;;;;3.25;0.98;;;10.60;99.90;;;;;;4904466;29;20059;-81
2024/03/12 09:44:25;;;;;;;2.77;0.47;;;10.60;99.90;;;;;;4891770;29;20507;-85
2024/03/12 09:46:54;;;;;;;2.22;0.60;;;10.60;99.90;;;;;;4901178;29;20634;-85
2024/03/12 09:49:23;;;;;;;2.28;1.08;;;10.60;99.90;;;;;;4904675;29;20068;-84
2024/03/12 09:51:52;;;;;;;1.33;0.50;;;10.60;99.90;;;;;;4901668;29;20044;-85
2024/03/12 09:54:20;;;;;;;2.40;1.20;;;10.60;99.90;;;;;;4898337;29;20409;-86
2024/03/12 09:56:50;;;;;;;2.70;1.30;;;10.60;99.90;;;;;;4901280;29;20076;-89
2024/03/12 09:59:20;;;;;;;5.70;0.95;;;10.60;99.90;;;;;;4889400;29;20537;-87
2024/03/12 10:01:50;;;;;;;3.05;1.48;;;10.40;99.90;;;;;;4903176;29;20580;-87
2024/03/12 10:04:18;;;;;;;3.35;1.30;;;10.30;99.90;;;;;;4888121;29;20457;-85
2024/03/12 10:06:49;;;;;;;2.63;1.15;;;10.30;99.90;;;;;;4896919;29;20258;-86
2024/03/12 10:09:18;;;;;;;2.92;1.33;;;10.30;99.90;;;;;;4904231;29;20057;-86
2024/03/12 10:11:46;;;;;;;3.78;1.60;;;10.30;99.90;;;;;;4887245;29;20048;-86
2024/03/12 10:14:17;;;;;;;3.67;1.48;;;10.40;99.90;;;;;;4899249;29;20561;-87
2024/03/12 10:16:46;;;;;;;4.80;1.73;;;10.40;99.90;;;;;;4906069;29;20063;-86
2024/03/12 10:19:17;;;;;;;3.67;1.20;;;10.40;99.90;;;;;;4889341;29;20111;-88
2024/03/12 10:21:46;;;;;;;5.20;1.05;;;10.30;99.90;;;;;;4895688;29;20053;-88
2024/03/12 10:24:17;;;;;;;2.88;1.30;;;10.30;99.90;;;;;;4895358;29;20154;-86
2024/03/12 10:26:47;;;;;;;3.30;1.83;;;10.30;99.90;;;;;;4891035;29;20526;-86
2024/03/12 10:29:18;;;;;;;3.70;2.00;;;10.30;99.90;;;;;;4905789;29;20119;-86
2024/03/12 10:31:47;;;;;;;3.10;1.02;;;10.50;99.90;;;;;;4892773;29;20091;-85
2024/03/12 10:34:19;;;;;;;2.13;0.95;;;10.50;99.90;;;;;;4893301;29;20109;-83
2024/03/12 10:36:49;;;;;;;2.58;0.70;;;10.60;99.90;;;;;;4907209;29;20053;-84
2024/03/12 10:39:27;;;;;;;2.92;1.05;;;10.50;99.90;;;;;;4897417;29;20049;-86
2024/03/12 10:41:57;;;;;;;2.40;1.10;;;10.60;99.90;;;;;;4892901;29;20041;-86
2024/03/12 10:44:27;;;;;;;4.32;2.15;;;10.60;99.90;;;;;;4892913;29;20132;-88
2024/03/12 10:46:58;;;;;;;4.35;2.20;;;10.60;99.90;;;;;;4911508;29;20139;-87
2024/03/12 10:49:29;;;;;;;2.55;1.27;;;10.70;99.90;;;;;;4889988;29;20518;-86
2024/03/12 10:51:58;;;;;;;5.95;1.67;;;10.70;99.90;;;;;;4890261;29;20535;-86
2024/03/12 10:54:27;;;;;;;4.55;1.52;;;10.70;99.90;;;;;;4889964;29;20052;-87
2024/03/12 10:57:02;;;;;;;3.03;1.15;;;10.70;99.90;;;;;;4905008;29;20048;-86
2024/03/12 10:59:33;;;;;;;2.45;1.05;;;10.70;99.90;;;;;;4906427;29;20520;-86
2024/03/12 11:02:02;;;;;;;3.33;1.23;;;10.80;99.90;;;;;;4893399;29;20083;-87
2024/03/12 11:04:38;;;;;;;2.90;1.42;;;10.70;99.90;;;;;;4893044;29;20105;-86
2024/03/12 11:07:10;;;;;;;4.05;1.48;;;10.70;99.90;;;;;;4889783;29;20041;-87
2024/03/12 11:09:40;;;;;;;4.32;1.80;;;10.60;99.90;;;;;;4890137;29;20049;-86
2024/03/12 11:12:09;;;;;;;3.83;1.13;;;10.70;99.90;;;;;;4902141;29;20061;-85
2024/03/12 11:14:38;;;;;;;2.88;0.90;;;10.70;99.90;;;;;;4906450;29;20394;-87
2024/03/12 11:17:25;;;;;;;3.22;2.05;;;10.70;99.90;;;;;;4891625;29;20088;-88
2024/03/12 11:19:58;;;;;;;3.72;1.67;;;10.70;99.90;;;;;;4900955;29;20068;-86
2024/03/12 11:22:31;;;;;;;5.90;2.28;;;10.70;99.90;;;;;;4906315;29;20169;-85
2024/03/12 11:25:00;;;;;;;7.43;4.05;;;10.70;99.90;;;;;;4904126;29;20052;-86
2024/03/12 11:27:27;;;;;;;5.38;3.15;;;10.70;99.90;;;;;;4891079;29;20051;-88
2024/03/12 11:30:11;;;;;;;6.53;3.72;;;10.70;99.90;;;;;;4903380;29;20462;-86
2024/03/12 11:32:41;;;;;;;6.78;3.42;;;10.60;99.90;;;;;;4887232;29;20052;-86
2024/03/12 11:35:31;;;;;;;9.00;3.33;;;10.70;99.90;;;;;;4904843;29;20479;-86
2024/03/12 11:38:06;;;;;;;5.82;2.58;;;10.60;99.90;;;;;;4904914;29;20060;-86
2024/03/12 11:40:48;;;;;;;6.93;2.88;;;10.70;99.90;;;;;;4886979;29;20052;-86
2024/03/12 11:43:37;;;;;;;6.63;2.85;;;10.70;99.90;;;;;;4905905;29;20060;-85
2024/03/12 11:46:07;;;;;;;4.10;2.92;;;10.70;99.90;;;;;;4890843;29;20131;-85
2024/03/12 11:48:38;;;;;;;6.75;3.40;;;10.80;99.90;;;;;;4892079;29;20436;-85
2024/03/12 11:51:11;;;;;;;4.85;3.03;;;10.70;99.90;;;;;;4906634;29;20060;-87
2024/03/12 11:53:42;;;;;;;5.70;2.88;;;10.70;99.90;;;;;;4888694;29;20409;-86
2024/03/12 11:56:15;;;;;;;4.05;2.33;;;10.70;99.90;;;;;;4889899;29;20543;-85
2024/03/12 11:58:49;;;;;;;5.78;2.65;;;10.70;99.90;;;;;;4903690;29;20500;-87
2024/03/12 12:01:19;;;;;;;4.90;2.10;;;10.50;99.90;;;;;;4903846;29;20147;-87
2024/03/12 12:03:54;;;;;;;7.78;3.35;;;10.60;99.90;;;;;;4905882;29;20044;-86
2024/03/12 12:06:24;;;;;;;16.42;7.40;;;10.60;99.90;;;;;;4903448;29;20109;-86
2024/03/12 12:08:53;;;;;;;8.05;3.83;;;10.60;99.90;;;;;;4902599;29;20447;-86
2024/03/12 12:11:29;;;;;;;8.10;3.83;;;10.60;99.90;;;;;;4889541;29;20049;-87
2024/03/12 12:13:58;;;;;;;7.85;3.80;;;10.50;99.90;;;;;;4890170;29;20045;-86
2024/03/12 12:16:29;;;;;;;9.32;3.67;;;10.50;99.90;;;;;;4903664;29;20108;-87
2024/03/12 12:19:05;;;;;;;5.38;2.50;;;10.60;99.90;;;;;;4889578;29;20520;-86
2024/03/12 12:21:38;;;;;;;4.90;2.10;;;10.60;99.90;;;;;;4889269;29;20063;-87
2024/03/12 12:24:08;;;;;;;7.25;4.00;;;10.60;99.90;;;;;;4891151;29;20052;-87
2024/03/12 12:26:38;;;;;;;9.02;4.15;;;10.50;99.90;;;;;;4889701;29;20068;-86
2024/03/12 12:29:09;;;;;;;6.97;3.75;;;10.50;99.90;;;;;;4905882;29;20143;-86
2024/03/12 12:31:41;;;;;;;5.60;3.03;;;10.60;99.90;;;;;;4905905;29;20420;-86
2024/03/12 12:34:10;;;;;;;6.57;3.33;;;10.50;99.90;;;;;;4902634;29;20131;-84
2024/03/12 12:36:44;;;;;;;12.15;4.45;;;10.50;99.90;;;;;;4890684;29;21555;-85
2024/03/12 12:39:16;;;;;;;6.22;3.58;;;10.50;99.90;;;;;;4901760;29;20049;-87
2024/03/12 12:41:48;;;;;;;7.05;2.75;;;10.50;99.90;;;;;;4904988;29;20064;-85
2024/03/12 12:44:20;;;;;;;4.75;2.40;;;10.40;99.90;;;;;;4903367;29;20040;-86
2024/03/12 12:46:52;;;;;;;8.23;2.70;;;10.40;99.90;;;;;;4887668;29;20116;-85
2024/03/12 12:49:22;;;;;;;5.55;2.15;;;10.40;99.90;;;;;;4890285;29;20051;-84
2024/03/12 12:51:54;;;;;;;4.47;2.28;;;10.40;99.90;;;;;;4892221;29;20519;-86
2024/03/12 12:54:23;;;;;;;6.68;2.17;;;10.40;99.90;;;;;;4901274;29;20501;-87
2024/03/12 12:56:51;;;;;;;6.60;3.33;;;10.40;99.90;;;;;;4887354;29;25402;-85
2024/03/12 12:59:21;;;;;;;6.88;3.00;;;10.40;99.90;;;;;;4895186;29;20052;-85
2024/03/12 13:01:49;;;;;;;5.40;2.38;;;10.40;99.90;;;;;;4904220;29;20602;-85
2024/03/12 13:04:20;;;;;;;5.00;2.10;;;10.40;99.90;;;;;;4888773;29;20037;-85
2024/03/12 13:06:53;;;;;;;9.23;2.88;;;10.30;99.90;;;;;;4890253;29;20116;-85
2024/03/12 13:09:31;;;;;;;7.05;3.50;;;10.40;99.90;;;;;;4904334;29;20075;-85
2024/03/12 13:12:01;;;;;;;7.82;3.00;;;10.40;99.90;;;;;;4888865;29;20580;-85